Time;durP1;ratioP1;P1;durP2;ratioP2;P2;SDS_P1;SDS_P2;PMS_P1;PMS_P2;Temp;Humidity;BMP_temperature;BMP_pressure;BME280_temperature;BME280_humidity;BME280_pressure;Samples;Min_cycle;Max_cycle;Signal;HPM_P1;HPM_P2
2021/09/02 00:02:19;;;;;;;11.27;5.85;;;436.10;2355.20;;;;;;4937501;29;20075;-75
2021/09/02 00:04:45;;;;;;;10.60;5.22;;;436.10;2355.20;;;;;;4919844;29;20059;-83
2021/09/02 00:07:11;;;;;;;7.15;4.90;;;436.00;2355.20;;;;;;4920229;29;20024;-77
2021/09/02 00:09:37;;;;;;;10.20;6.03;;;435.90;2355.20;;;;;;4937452;29;20386;-76
2021/09/02 00:12:03;;;;;;;13.48;5.60;;;435.90;2355.20;;;;;;4919877;29;20083;-81
2021/09/02 00:14:28;;;;;;;11.88;7.05;;;435.90;2355.20;;;;;;4937611;29;20027;-77
2021/09/02 00:16:54;;;;;;;14.13;5.80;;;436.00;2355.20;;;;;;4937066;29;20375;-84
2021/09/02 00:19:20;;;;;;;9.27;5.82;;;435.90;2355.20;;;;;;4937012;29;20103;-74
2021/09/02 00:21:46;;;;;;;11.57;5.57;;;435.90;2355.20;;;;;;4936844;29;20516;-73
2021/09/02 00:24:11;;;;;;;12.43;5.78;;;435.80;2355.20;;;;;;4936994;29;20099;-76
2021/09/02 00:26:40;;;;;;;12.07;6.78;;;435.90;2355.20;;;;;;4936893;29;20031;-85
2021/09/02 00:29:06;;;;;;;8.38;5.38;;;435.90;2355.20;;;;;;4917675;29;20284;-76
2021/09/02 00:31:32;;;;;;;7.68;5.28;;;435.90;2355.20;;;;;;4919855;29;20070;-75
2021/09/02 00:33:58;;;;;;;11.48;6.28;;;435.90;2355.20;;;;;;4918993;29;20478;-76
2021/09/02 00:36:23;;;;;;;9.95;5.85;;;435.80;2355.20;;;;;;4936726;29;20028;-77
2021/09/02 00:38:49;;;;;;;9.95;6.18;;;435.90;2355.20;;;;;;4919920;29;20047;-80
2021/09/02 00:41:15;;;;;;;9.98;5.60;;;435.80;2355.20;;;;;;4920210;29;20126;-75
2021/09/02 00:43:42;;;;;;;8.07;5.47;;;435.90;2355.20;;;;;;4936931;29;20036;-75
2021/09/02 00:46:15;;;;;;;14.27;5.90;;;435.80;2355.20;;;;;;4919773;29;20035;-75
2021/09/02 00:48:46;;;;;;;8.77;5.55;;;435.90;2355.20;;;;;;4918277;29;20032;-75
2021/09/02 00:51:14;;;;;;;12.23;6.18;;;435.60;2355.20;;;;;;4919848;29;20497;-74
2021/09/02 00:53:40;;;;;;;7.88;4.97;;;435.50;2355.20;;;;;;4936434;29;20102;-75
2021/09/02 00:56:06;;;;;;;10.13;6.13;;;435.50;2355.20;;;;;;4933814;29;20036;-74
2021/09/02 00:58:33;;;;;;;11.68;6.15;;;435.60;2355.20;;;;;;4936686;29;20060;-74
2021/09/02 01:00:58;;;;;;;8.80;5.90;;;435.60;2355.20;;;;;;4934835;29;20028;-87
2021/09/02 01:03:24;;;;;;;9.80;5.60;;;435.70;2355.20;;;;;;4936455;29;20031;-75
2021/09/02 01:05:54;;;;;;;12.27;5.40;;;435.80;2355.20;;;;;;4918976;29;20083;-75
2021/09/02 01:08:19;;;;;;;12.20;6.15;;;435.90;2355.20;;;;;;4936651;29;20020;-84
2021/09/02 01:10:49;;;;;;;8.80;5.82;;;435.90;2355.20;;;;;;4919009;29;20033;-75
2021/09/02 01:13:17;;;;;;;11.63;4.88;;;435.90;2355.20;;;;;;4936275;29;20136;-76
2021/09/02 01:15:42;;;;;;;7.93;5.28;;;435.90;2355.20;;;;;;4918906;29;20039;-76
2021/09/02 01:18:08;;;;;;;9.52;5.80;;;435.90;2355.20;;;;;;4935818;29;20031;-76
2021/09/02 01:20:34;;;;;;;11.18;5.55;;;435.80;2355.20;;;;;;4936451;29;20071;-77
2021/09/02 01:23:02;;;;;;;10.52;5.50;;;435.80;2355.20;;;;;;4933954;29;20027;-75
2021/09/02 01:25:41;;;;;;;9.75;5.55;;;435.70;2355.20;;;;;;4931237;29;20026;-75
2021/09/02 01:28:08;;;;;;;11.10;5.68;;;435.60;2355.20;;;;;;4933675;29;20103;-82
2021/09/02 01:30:35;;;;;;;9.75;5.47;;;435.70;2355.20;;;;;;4919077;29;20478;-75
2021/09/02 01:33:02;;;;;;;11.88;5.25;;;435.70;2355.20;;;;;;4935955;29;20501;-75
2021/09/02 01:35:31;;;;;;;9.35;5.75;;;435.80;2355.20;;;;;;4935814;29;20020;-80
2021/09/02 01:38:00;;;;;;;7.35;4.75;;;435.80;2355.20;;;;;;4935935;29;20038;-88
2021/09/02 01:40:34;;;;;;;10.18;5.57;;;435.60;2355.20;;;;;;4935562;29;20102;-85
2021/09/02 01:43:01;;;;;;;7.57;5.10;;;435.60;2355.20;;;;;;4918633;29;20119;-80
2021/09/02 01:45:27;;;;;;;11.30;6.90;;;435.60;2355.20;;;;;;4935553;29;20023;-77
2021/09/02 01:47:58;;;;;;;8.98;6.10;;;435.80;2355.20;;;;;;4935884;29;20016;-88
2021/09/02 01:50:25;;;;;;;12.13;6.10;;;435.70;2355.20;;;;;;4935608;29;20038;-85
2021/09/02 01:52:52;;;;;;;14.13;7.63;;;435.80;2355.20;;;;;;4935652;29;20012;-76
2021/09/02 01:55:20;;;;;;;13.80;8.73;;;435.80;2355.20;;;;;;4935636;29;20023;-86
2021/09/02 01:57:46;;;;;;;14.68;8.25;;;435.80;2355.20;;;;;;4935264;29;20067;-76
2021/09/02 02:00:13;;;;;;;15.05;9.45;;;435.80;2355.20;;;;;;4935301;29;20070;-85
2021/09/02 02:02:40;;;;;;;17.13;10.93;;;435.70;2355.20;;;;;;4918019;29;20051;-78
2021/09/02 02:05:07;;;;;;;23.98;11.60;;;435.80;2355.20;;;;;;4917966;29;20040;-79
2021/09/02 02:07:34;;;;;;;19.20;12.18;;;435.70;2355.20;;;;;;4918087;29;20138;-76
2021/09/02 02:10:00;;;;;;;17.50;10.20;;;435.70;2355.20;;;;;;4935164;29;20036;-81
2021/09/02 02:12:25;;;;;;;18.70;11.73;;;435.70;2355.20;;;;;;4915277;29;20043;-77
2021/09/02 02:14:51;;;;;;;19.40;10.93;;;435.70;2355.20;;;;;;4917683;29;20043;-77
2021/09/02 02:17:17;;;;;;;23.42;12.68;;;435.70;2355.20;;;;;;4917975;29;20043;-77
2021/09/02 02:19:43;;;;;;;26.70;11.13;;;435.60;2355.20;;;;;;4934856;29;20023;-82
2021/09/02 02:22:08;;;;;;;24.63;11.57;;;435.60;2355.20;;;;;;4935014;29;20463;-76
2021/09/02 02:24:34;;;;;;;18.60;10.38;;;435.70;2355.20;;;;;;4934983;29;20082;-86
2021/09/02 02:27:00;;;;;;;22.55;10.93;;;435.60;2355.20;;;;;;4934971;29;20039;-75
2021/09/02 02:29:25;;;;;;;19.33;10.68;;;435.50;2355.20;;;;;;4932794;29;20027;-78
2021/09/02 02:31:51;;;;;;;19.70;10.27;;;435.50;2355.20;;;;;;4917835;29;20032;-76
2021/09/02 02:34:17;;;;;;;18.88;11.10;;;435.60;2355.20;;;;;;4917621;29;20370;-76
2021/09/02 02:36:43;;;;;;;20.83;10.57;;;435.60;2355.20;;;;;;4934845;29;20032;-77
2021/09/02 02:39:09;;;;;;;25.42;11.82;;;435.60;2355.20;;;;;;4917468;29;20054;-80
2021/09/02 02:41:35;;;;;;;27.58;16.40;;;435.70;2355.20;;;;;;4935017;29;20463;-85
2021/09/02 02:44:01;;;;;;;27.67;15.65;;;435.70;2355.20;;;;;;4934970;29;20067;-76
2021/09/02 02:46:26;;;;;;;28.15;14.77;;;435.90;2355.20;;;;;;4934463;29;20071;-76
2021/09/02 02:48:52;;;;;;;20.58;11.02;;;435.90;2355.20;;;;;;4934734;29;20086;-84
2021/09/02 02:51:18;;;;;;;13.38;8.10;;;435.90;2355.20;;;;;;4934377;29;20095;-76
2021/09/02 02:53:44;;;;;;;14.40;7.35;;;435.90;2355.20;;;;;;4934658;29;20078;-75
2021/09/02 02:56:09;;;;;;;8.75;6.13;;;435.90;2355.20;;;;;;4934317;29;20098;-76
2021/09/02 02:58:35;;;;;;;8.77;5.65;;;435.90;2355.20;;;;;;4934765;29;20512;-77
2021/09/02 03:01:01;;;;;;;9.73;6.15;;;435.90;2355.20;;;;;;4934351;29;20414;-76
2021/09/02 03:03:28;;;;;;;11.52;6.53;;;435.90;2355.20;;;;;;4917512;29;20467;-76
2021/09/02 03:05:54;;;;;;;11.27;7.25;;;435.90;2355.20;;;;;;4934441;29;20075;-88
2021/09/02 03:08:19;;;;;;;11.43;6.88;;;435.90;2355.20;;;;;;4934487;29;20024;-83
2021/09/02 03:10:45;;;;;;;11.90;7.60;;;435.60;2355.20;;;;;;4917321;29;20102;-90
2021/09/02 03:13:11;;;;;;;13.32;7.72;;;435.60;2355.20;;;;;;4916061;29;20070;-76
2021/09/02 03:15:36;;;;;;;13.40;7.55;;;435.60;2355.20;;;;;;4934246;29;20102;-76
2021/09/02 03:18:03;;;;;;;14.73;8.35;;;435.60;2355.20;;;;;;4917176;29;20047;-75
2021/09/02 03:20:29;;;;;;;11.63;6.90;;;435.60;2355.20;;;;;;4917254;29;20026;-76
2021/09/02 03:22:54;;;;;;;13.85;6.90;;;435.60;2355.20;;;;;;4934296;29;20106;-76
2021/09/02 03:25:20;;;;;;;10.93;7.45;;;435.60;2355.20;;;;;;4917170;29;20486;-76
2021/09/02 03:27:46;;;;;;;12.95;6.43;;;435.60;2355.20;;;;;;4934183;29;20027;-75
2021/09/02 03:30:12;;;;;;;11.13;5.95;;;435.50;2355.20;;;;;;4912202;29;20449;-75
2021/09/02 03:32:38;;;;;;;14.35;6.18;;;435.30;2355.20;;;;;;4933980;29;20027;-76
2021/09/02 03:35:05;;;;;;;10.65;5.80;;;435.30;2355.20;;;;;;4934332;29;20028;-80
2021/09/02 03:37:31;;;;;;;8.57;5.75;;;435.20;2355.20;;;;;;4916843;29;20032;-82
2021/09/02 03:39:57;;;;;;;12.27;6.38;;;410.50;2355.20;;;;;;4916898;29;20031;-76
2021/09/02 03:42:23;;;;;;;9.43;6.13;;;410.40;2355.20;;;;;;4934084;29;20478;-75
2021/09/02 03:44:48;;;;;;;11.48;7.38;;;410.30;2355.20;;;;;;4933740;29;20028;-76
2021/09/02 03:47:14;;;;;;;8.77;5.75;;;410.30;2355.20;;;;;;4917030;29;20028;-76
2021/09/02 03:49:40;;;;;;;8.25;5.63;;;410.30;2355.20;;;;;;4933743;29;20042;-76
2021/09/02 03:52:06;;;;;;;10.48;6.45;;;410.40;2355.20;;;;;;4933903;29;20046;-76
2021/09/02 03:54:32;;;;;;;10.80;6.20;;;410.40;2355.20;;;;;;4933803;29;20067;-76
2021/09/02 03:56:57;;;;;;;12.15;6.55;;;410.40;2355.20;;;;;;4916865;29;20041;-76
2021/09/02 03:59:23;;;;;;;14.43;6.72;;;410.40;2355.20;;;;;;4916743;29;20499;-76
2021/09/02 04:01:49;;;;;;;11.20;6.43;;;410.40;2355.20;;;;;;4934068;29;20042;-76
2021/09/02 04:04:14;;;;;;;10.07;6.80;;;410.50;2355.20;;;;;;4934004;29;20023;-75
2021/09/02 04:06:40;;;;;;;9.07;6.80;;;410.30;2355.20;;;;;;4933886;29;20497;-76
2021/09/02 04:09:06;;;;;;;11.95;5.82;;;410.30;2355.20;;;;;;4934230;29;20031;-76
2021/09/02 04:11:32;;;;;;;9.80;5.85;;;410.30;2355.20;;;;;;4916961;29;20102;-76
2021/09/02 04:13:57;;;;;;;14.43;7.13;;;410.30;2355.20;;;;;;4934231;29;20046;-76
2021/09/02 04:16:23;;;;;;;11.60;6.30;;;410.30;2355.20;;;;;;4916981;29;20047;-75
2021/09/02 04:18:49;;;;;;;12.18;6.95;;;410.30;2355.20;;;;;;4934122;29;20050;-76
2021/09/02 04:21:15;;;;;;;11.60;6.85;;;410.30;2355.20;;;;;;4933916;29;20024;-76
2021/09/02 04:23:43;;;;;;;11.25;7.38;;;410.20;2355.20;;;;;;4934383;29;20020;-78
2021/09/02 04:26:09;;;;;;;14.80;7.07;;;410.20;2355.20;;;;;;4937707;29;20346;-76
2021/09/02 04:28:35;;;;;;;10.25;6.70;;;410.10;2355.20;;;;;;4920720;29;20039;-76
2021/09/02 04:31:01;;;;;;;10.27;6.70;;;410.00;2355.20;;;;;;4920330;29;20366;-76
2021/09/02 04:33:27;;;;;;;12.65;6.97;;;410.00;2355.20;;;;;;4920051;29;20028;-77
2021/09/02 04:35:53;;;;;;;11.77;6.90;;;410.00;2355.20;;;;;;4937066;29;20075;-76
2021/09/02 04:38:20;;;;;;;11.23;6.50;;;410.00;2355.20;;;;;;4937226;29;20497;-89
2021/09/02 04:40:49;;;;;;;14.30;7.18;;;410.00;2355.20;;;;;;4937227;29;20476;-87
2021/09/02 04:43:16;;;;;;;12.05;7.00;;;410.00;2355.20;;;;;;4919872;29;20126;-76
2021/09/02 04:45:42;;;;;;;13.45;6.68;;;409.90;2355.20;;;;;;4920369;29;20028;-76
2021/09/02 04:48:19;;;;;;;11.43;7.00;;;410.00;2355.20;;;;;;4936816;29;20124;-75
2021/09/02 04:50:47;;;;;;;10.48;6.95;;;410.00;2355.20;;;;;;4936960;29;20023;-76
2021/09/02 04:53:13;;;;;;;13.75;7.18;;;410.00;2355.20;;;;;;4920031;29;20038;-76
2021/09/02 04:55:39;;;;;;;10.45;7.38;;;410.00;2355.20;;;;;;4919926;29;20048;-83
2021/09/02 04:58:07;;;;;;;11.20;7.57;;;410.00;2355.20;;;;;;4920035;29;20040;-90
2021/09/02 05:00:34;;;;;;;14.70;7.00;;;410.00;2355.20;;;;;;4937021;29;20023;-82
2021/09/02 05:02:59;;;;;;;10.35;7.18;;;410.00;2355.20;;;;;;4919859;29;20031;-76
2021/09/02 05:05:25;;;;;;;13.05;6.43;;;409.90;2355.20;;;;;;4919421;29;20374;-81
2021/09/02 05:07:51;;;;;;;12.13;6.85;;;409.90;2355.20;;;;;;4936548;29;20035;-87
2021/09/02 05:10:17;;;;;;;11.82;7.05;;;410.00;2355.20;;;;;;4936432;29;20374;-76
2021/09/02 05:12:43;;;;;;;10.98;6.38;;;410.00;2355.20;;;;;;4919164;29;20056;-77
2021/09/02 05:15:09;;;;;;;11.23;7.20;;;410.20;2355.20;;;;;;4918893;29;20031;-76
2021/09/02 05:17:34;;;;;;;9.25;5.75;;;410.20;2355.20;;;;;;4935880;29;20061;-75
2021/09/02 05:20:00;;;;;;;9.68;6.72;;;410.20;2355.20;;;;;;4936361;29;20028;-82
2021/09/02 05:22:26;;;;;;;9.02;6.18;;;410.20;2355.20;;;;;;4935729;29;20382;-76
2021/09/02 05:24:52;;;;;;;15.65;7.03;;;410.20;2355.20;;;;;;4935997;29;20036;-76
2021/09/02 05:27:18;;;;;;;10.63;6.82;;;410.20;2355.20;;;;;;4918811;29;20375;-77
2021/09/02 05:29:44;;;;;;;10.25;6.85;;;410.30;2355.20;;;;;;4919148;29;20020;-89
2021/09/02 05:32:10;;;;;;;11.88;6.45;;;410.20;2355.20;;;;;;4936041;29;20082;-84
2021/09/02 05:34:36;;;;;;;12.18;7.05;;;410.30;2355.20;;;;;;4935904;29;20475;-77
2021/09/02 05:37:02;;;;;;;10.35;6.75;;;410.40;2355.20;;;;;;4935829;29;20067;-87
2021/09/02 05:39:28;;;;;;;14.75;7.80;;;410.40;2355.20;;;;;;4936309;29;20445;-88
2021/09/02 05:41:54;;;;;;;12.43;7.88;;;435.20;2355.20;;;;;;4918464;29;20064;-77
2021/09/02 05:44:20;;;;;;;11.85;6.88;;;435.20;2355.20;;;;;;4935643;29;20035;-76
2021/09/02 05:46:46;;;;;;;14.85;6.93;;;435.20;2355.20;;;;;;4919132;29;20591;-77
2021/09/02 05:49:12;;;;;;;12.68;6.82;;;435.30;2355.20;;;;;;4935575;29;20046;-84
2021/09/02 05:51:38;;;;;;;11.07;7.47;;;435.30;2355.20;;;;;;4935846;29;20107;-80
2021/09/02 05:54:04;;;;;;;16.33;7.68;;;435.30;2355.20;;;;;;4935685;29;20529;-78
2021/09/02 05:56:29;;;;;;;12.18;8.13;;;435.40;2355.20;;;;;;4918836;29;20107;-76
2021/09/02 05:58:55;;;;;;;14.65;7.88;;;435.50;2355.20;;;;;;4935755;29;20030;-77
2021/09/02 06:01:22;;;;;;;14.25;7.38;;;435.50;2355.20;;;;;;4918942;29;20028;-76
2021/09/02 06:03:48;;;;;;;11.18;7.75;;;435.60;2355.20;;;;;;4918241;29;20031;-75
2021/09/02 06:06:14;;;;;;;13.98;7.90;;;435.60;2355.20;;;;;;4935470;29;20031;-77
2021/09/02 06:08:39;;;;;;;10.80;7.50;;;435.60;2355.20;;;;;;4935288;29;20046;-78
2021/09/02 06:11:05;;;;;;;9.20;6.70;;;435.70;2355.20;;;;;;4935182;29;20102;-75
2021/09/02 06:13:32;;;;;;;12.90;7.65;;;435.80;2355.20;;;;;;4935485;29;20044;-77
2021/09/02 06:15:58;;;;;;;9.70;6.80;;;435.90;2355.20;;;;;;4918044;29;20087;-76
2021/09/02 06:18:23;;;;;;;11.52;7.63;;;435.90;2355.20;;;;;;4935394;29;20028;-76
2021/09/02 06:20:49;;;;;;;10.75;6.63;;;436.00;2355.20;;;;;;4935079;29;20054;-76
2021/09/02 06:23:15;;;;;;;10.93;7.50;;;436.10;2355.20;;;;;;4935105;29;20036;-76
2021/09/02 06:25:41;;;;;;;12.85;7.40;;;460.80;2380.80;;;;;;4935081;29;20024;-76
2021/09/02 06:28:07;;;;;;;11.82;7.50;;;460.90;2380.80;;;;;;4935171;29;20023;-76
2021/09/02 06:30:33;;;;;;;14.45;8.07;;;460.90;2380.80;;;;;;4923994;29;20048;-75
2021/09/02 06:32:59;;;;;;;11.18;7.47;;;461.00;2380.80;;;;;;4916120;29;20024;-75
2021/09/02 06:35:25;;;;;;;15.80;7.03;;;460.80;2380.80;;;;;;4915684;29;20371;-76
2021/09/02 06:37:51;;;;;;;11.07;6.88;;;460.90;2380.80;;;;;;4915387;29;20039;-76
2021/09/02 06:40:20;;;;;;;13.48;7.68;;;461.10;2380.80;;;;;;4915876;29;20064;-76
2021/09/02 06:42:45;;;;;;;12.18;7.85;;;461.30;2380.80;;;;;;4926045;29;20430;-76
2021/09/02 06:45:11;;;;;;;16.00;7.55;;;461.40;2380.80;;;;;;4934505;29;20058;-77
2021/09/02 06:47:38;;;;;;;12.75;7.93;;;461.50;2380.80;;;;;;4916444;29;20031;-76
2021/09/02 06:50:06;;;;;;;12.57;7.65;;;461.60;2380.80;;;;;;4934688;29;20020;-76
2021/09/02 06:52:32;;;;;;;11.35;7.13;;;486.40;2380.80;;;;;;4934480;29;20078;-76
2021/09/02 06:54:58;;;;;;;13.68;7.30;;;486.40;2380.80;;;;;;4917797;29;20110;-76
2021/09/02 06:57:24;;;;;;;13.95;7.10;;;486.40;2380.80;;;;;;4934517;29;20043;-77
2021/09/02 06:59:50;;;;;;;10.52;7.07;;;486.50;2380.80;;;;;;4917737;29;20032;-75
2021/09/02 07:02:16;;;;;;;10.27;6.70;;;486.70;2380.80;;;;;;4934603;29;20036;-76
2021/09/02 07:04:41;;;;;;;14.70;7.40;;;486.80;2380.80;;;;;;4917530;29;20394;-81
2021/09/02 07:07:07;;;;;;;12.45;6.75;;;486.90;2380.80;;;;;;4934240;29;20087;-76
2021/09/02 07:09:33;;;;;;;11.20;7.07;;;486.90;2380.80;;;;;;4934481;29;20474;-75
2021/09/02 07:12:00;;;;;;;9.85;6.85;;;487.00;2380.80;;;;;;4933822;29;20040;-76
2021/09/02 07:14:26;;;;;;;12.00;7.00;;;487.10;2380.80;;;;;;4931887;29;20094;-76
2021/09/02 07:16:52;;;;;;;12.15;6.70;;;487.20;2380.80;;;;;;4934539;29;20040;-78
2021/09/02 07:19:18;;;;;;;9.73;6.13;;;512.00;2380.80;;;;;;4917098;29;20036;-75
2021/09/02 07:21:43;;;;;;;8.13;6.00;;;512.20;2380.80;;;;;;4934535;29;20032;-76
2021/09/02 07:24:09;;;;;;;10.20;6.63;;;512.20;2380.80;;;;;;4917072;29;20516;-75
2021/09/02 07:26:36;;;;;;;9.85;6.80;;;512.40;2380.80;;;;;;4934503;29;20038;-75
2021/09/02 07:29:02;;;;;;;10.57;6.95;;;512.50;2380.80;;;;;;4917201;29;20031;-76
2021/09/02 07:31:28;;;;;;;11.25;6.10;;;512.70;2380.80;;;;;;4934111;29;20064;-76
2021/09/02 07:33:53;;;;;;;13.10;6.53;;;512.80;2329.60;;;;;;4917087;29;20060;-81
2021/09/02 07:36:19;;;;;;;11.13;6.22;;;512.90;2329.60;;;;;;4933674;29;20062;-83
2021/09/02 07:38:45;;;;;;;16.58;10.32;;;512.90;2329.60;;;;;;4917156;29;20032;-82
2021/09/02 07:41:11;;;;;;;11.38;7.30;;;512.90;2329.60;;;;;;4933558;29;20062;-79
2021/09/02 07:43:37;;;;;;;12.75;7.32;;;537.60;2329.60;;;;;;4917412;29;20100;-77
2021/09/02 07:46:02;;;;;;;11.30;6.50;;;537.70;2304.00;;;;;;4917571;29;20482;-76
2021/09/02 07:48:28;;;;;;;11.02;5.85;;;537.80;2278.40;;;;;;4934357;29;20028;-79
2021/09/02 07:50:54;;;;;;;19.35;13.35;;;537.90;2304.00;;;;;;4934183;29;20024;-76
2021/09/02 07:53:21;;;;;;;9.65;5.95;;;537.90;2201.60;;;;;;4934160;29;20119;-77
2021/09/02 07:55:47;;;;;;;12.40;7.60;;;537.90;2227.20;;;;;;4934366;29;20107;-82
2021/09/02 07:58:13;;;;;;;12.93;7.32;;;538.00;2201.60;;;;;;4935072;29;20112;-77
2021/09/02 08:00:38;;;;;;;12.27;7.47;;;538.10;2201.60;;;;;;4921248;29;20051;-78
2021/09/02 08:03:04;;;;;;;12.50;7.03;;;538.10;2201.60;;;;;;4921069;29;20386;-77
2021/09/02 08:05:30;;;;;;;11.80;7.53;;;538.20;2201.60;;;;;;4937917;29;20036;-76
2021/09/02 08:07:56;;;;;;;11.85;6.68;;;538.20;2176.00;;;;;;4920924;29;20042;-82
2021/09/02 08:10:23;;;;;;;14.50;6.28;;;538.20;2150.40;;;;;;4920919;29;20035;-76
2021/09/02 08:12:50;;;;;;;11.25;5.28;;;538.30;2124.80;;;;;;4920668;29;20106;-87
2021/09/02 08:15:17;;;;;;;9.18;6.13;;;538.40;2150.40;;;;;;4937875;29;20032;-77
2021/09/02 08:17:44;;;;;;;10.43;5.82;;;538.50;2124.80;;;;;;4937758;29;20493;-77
2021/09/02 08:20:10;;;;;;;8.35;5.80;;;538.50;2099.20;;;;;;4920997;29;20032;-79
2021/09/02 08:22:37;;;;;;;8.43;5.40;;;563.20;2124.80;;;;;;4937950;29;20027;-77
2021/09/02 08:25:04;;;;;;;11.98;6.45;;;563.20;2176.00;;;;;;4937596;29;20067;-77
2021/09/02 08:27:30;;;;;;;10.20;6.05;;;563.20;2176.00;;;;;;4937897;29;20059;-76
2021/09/02 08:29:55;;;;;;;12.63;7.80;;;563.20;2073.60;;;;;;4937545;29;20058;-83
2021/09/02 08:32:21;;;;;;;12.48;7.72;;;563.20;2099.20;;;;;;4937919;29;20439;-79
2021/09/02 08:34:47;;;;;;;12.20;6.30;;;563.30;2124.80;;;;;;4937357;29;20102;-78
2021/09/02 08:37:13;;;;;;;9.18;6.00;;;563.30;2099.20;;;;;;4937136;29;20035;-79
2021/09/02 08:39:38;;;;;;;10.43;5.00;;;563.30;2124.80;;;;;;4937452;29;20102;-77
2021/09/02 08:42:04;;;;;;;11.13;5.22;;;563.40;2124.80;;;;;;4937588;29;20437;-83
2021/09/02 08:44:30;;;;;;;8.45;4.75;;;563.40;2099.20;;;;;;4937089;29;20050;-85
2021/09/02 08:46:56;;;;;;;8.15;5.10;;;563.40;2124.80;;;;;;4937359;29;20035;-82
2021/09/02 08:49:23;;;;;;;11.73;5.30;;;563.50;2099.20;;;;;;4919272;29;20489;-82
2021/09/02 08:51:49;;;;;;;10.32;5.95;;;563.60;2099.20;;;;;;4937002;29;20032;-76
2021/09/02 08:54:16;;;;;;;9.88;5.05;;;563.60;2073.60;;;;;;4937164;29;20023;-76
2021/09/02 08:56:41;;;;;;;16.67;5.35;;;563.70;2048.00;;;;;;4936546;29;20103;-79
2021/09/02 08:59:07;;;;;;;7.47;4.65;;;563.70;2073.60;;;;;;4936941;29;20186;-82
2021/09/02 09:01:33;;;;;;;10.35;5.47;;;563.70;2150.40;;;;;;4933952;29;20031;-77
2021/09/02 09:04:08;;;;;;;7.55;4.93;;;563.70;2099.20;;;;;;4936569;29;20032;-80
2021/09/02 09:06:34;;;;;;;6.80;4.82;;;563.70;2073.60;;;;;;4916618;29;20090;-76
2021/09/02 09:08:59;;;;;;;7.75;5.35;;;563.60;2073.60;;;;;;4936672;29;20027;-77
2021/09/02 09:11:30;;;;;;;12.90;5.13;;;563.60;2150.40;;;;;;4935554;29;20704;-77
2021/09/02 09:14:05;;;;;;;8.45;4.97;;;563.60;2022.40;;;;;;4936657;29;20512;-76
2021/09/02 09:16:49;;;;;;;7.35;5.18;;;563.90;2022.40;;;;;;4936703;29;20067;-77
2021/09/02 09:19:53;;;;;;;8.70;4.90;;;564.10;2022.40;;;;;;4936315;29;20471;-78
2021/09/02 09:22:22;;;;;;;9.25;4.75;;;588.80;2022.40;;;;;;4935918;29;20040;-80
2021/09/02 09:24:56;;;;;;;7.53;5.40;;;588.80;1996.80;;;;;;4936640;29;20055;-77
2021/09/02 09:27:31;;;;;;;8.85;5.32;;;588.80;2048.00;;;;;;4919514;29;20474;-79
2021/09/02 09:30:07;;;;;;;8.75;5.05;;;564.10;2022.40;;;;;;4933915;29;20035;-78
2021/09/02 09:32:41;;;;;;;8.38;5.10;;;564.00;2048.00;;;;;;4936312;29;20020;-77
2021/09/02 09:35:10;;;;;;;9.07;5.50;;;564.10;2022.40;;;;;;4936031;29;20027;-77
2021/09/02 09:37:36;;;;;;;8.48;5.68;;;588.80;1945.60;;;;;;4936221;29;20102;-76
2021/09/02 09:40:12;;;;;;;10.25;4.90;;;588.90;1971.20;;;;;;4936203;29;20462;-82
2021/09/02 09:42:37;;;;;;;10.30;4.75;;;589.10;1894.40;;;;;;4936051;29;20031;-77
2021/09/02 09:45:07;;;;;;;7.82;4.82;;;589.20;1920.00;;;;;;4936310;29;20383;-78
2021/09/02 09:47:34;;;;;;;7.93;5.45;;;589.30;1920.00;;;;;;4936040;29;20390;-77
2021/09/02 09:50:09;;;;;;;7.05;4.50;;;589.60;1894.40;;;;;;4936033;29;20027;-78
2021/09/02 09:52:42;;;;;;;7.68;5.22;;;589.70;1920.00;;;;;;4936445;29;20019;-79
2021/09/02 09:55:13;;;;;;;6.20;4.68;;;614.50;1868.80;;;;;;4935800;29;20382;-76
2021/09/02 09:57:40;;;;;;;7.88;4.35;;;614.60;1817.60;;;;;;4935992;29;20054;-80
2021/09/02 10:00:20;;;;;;;5.88;4.60;;;614.70;1792.00;;;;;;4935729;29;20015;-82
2021/09/02 10:02:50;;;;;;;6.75;4.50;;;614.80;1792.00;;;;;;4915796;29;20031;-76
2021/09/02 10:05:18;;;;;;;11.23;4.95;;;615.00;1766.40;;;;;;4918356;29;20032;-80
2021/09/02 10:07:46;;;;;;;6.25;4.20;;;615.00;1843.20;;;;;;4935422;29;20024;-77
2021/09/02 10:10:15;;;;;;;8.65;4.70;;;614.80;1792.00;;;;;;4935517;29;20131;-80
2021/09/02 10:12:46;;;;;;;9.80;5.47;;;614.60;1843.20;;;;;;4934833;29;20044;-78
2021/09/02 10:15:14;;;;;;;9.77;5.07;;;614.50;1843.20;;;;;;4935185;29;20024;-76
2021/09/02 10:17:42;;;;;;;11.50;5.32;;;614.80;1894.40;;;;;;4918287;29;20039;-77
2021/09/02 10:20:11;;;;;;;8.20;4.72;;;614.90;1868.80;;;;;;4935817;29;20102;-82
2021/09/02 10:22:37;;;;;;;6.63;4.75;;;614.80;1792.00;;;;;;4935445;29;20031;-77
2021/09/02 10:25:04;;;;;;;9.70;4.93;;;615.00;1740.80;;;;;;4917919;29;20131;-77
2021/09/02 10:27:35;;;;;;;7.80;5.22;;;615.20;1766.40;;;;;;4918311;29;20067;-77
2021/09/02 10:30:19;;;;;;;6.70;4.75;;;640.10;1715.20;;;;;;4917963;29;20058;-77
2021/09/02 10:32:45;;;;;;;6.03;4.05;;;640.50;1664.00;;;;;;4935205;29;20026;-84
2021/09/02 10:35:12;;;;;;;9.25;4.63;;;640.60;1638.40;;;;;;4934958;29;20036;-87
2021/09/02 10:37:41;;;;;;;6.65;3.95;;;640.70;1715.20;;;;;;4917498;29;20082;-77
2021/09/02 10:40:16;;;;;;;10.15;5.65;;;640.90;1664.00;;;;;;4934725;29;20526;-76
2021/09/02 10:42:46;;;;;;;7.00;4.80;;;640.70;1612.80;;;;;;4917784;29;20075;-81
2021/09/02 10:45:27;;;;;;;7.50;4.40;;;640.50;1638.40;;;;;;4917864;29;20433;-82
2021/09/02 10:48:06;;;;;;;6.88;4.38;;;640.10;1740.80;;;;;;4935478;29;20048;-83
2021/09/02 10:50:37;;;;;;;10.43;4.28;;;615.20;1766.40;;;;;;4935394;29;20062;-86
2021/09/02 10:53:12;;;;;;;9.18;3.90;;;615.00;1689.60;;;;;;4934550;29;20034;-80
2021/09/02 10:55:48;;;;;;;7.47;4.30;;;614.90;1715.20;;;;;;4917601;29;20032;-80
2021/09/02 10:58:52;;;;;;;6.75;4.05;;;614.80;1715.20;;;;;;4917365;29;20067;-77
2021/09/02 11:01:21;;;;;;;8.20;4.55;;;614.40;1792.00;;;;;;4888943;29;20044;-77
2021/09/02 11:03:47;;;;;;;7.78;4.57;;;614.80;1740.80;;;;;;4894915;29;20031;-77
2021/09/02 11:06:13;;;;;;;6.10;4.20;;;614.80;1792.00;;;;;;4894419;29;20049;-79
2021/09/02 11:08:40;;;;;;;8.38;4.20;;;614.60;1843.20;;;;;;4878201;29;20480;-80
2021/09/02 11:11:14;;;;;;;7.95;4.25;;;614.50;1817.60;;;;;;4878342;29;20140;-77
2021/09/02 11:13:42;;;;;;;12.45;3.92;;;614.50;1792.00;;;;;;4894128;29;20041;-79
2021/09/02 11:16:14;;;;;;;6.35;4.15;;;614.50;1843.20;;;;;;4878023;29;20041;-76
2021/09/02 11:19:00;;;;;;;7.57;4.43;;;614.60;1766.40;;;;;;4893498;29;20098;-76
2021/09/02 11:21:28;;;;;;;7.57;4.38;;;614.80;1740.80;;;;;;4891533;29;20037;-80
2021/09/02 11:24:02;;;;;;;6.35;4.13;;;614.80;1740.80;;;;;;4878714;29;20576;-79
2021/09/02 11:26:37;;;;;;;8.48;3.75;;;614.80;1715.20;;;;;;4878853;29;20045;-76
2021/09/02 11:29:04;;;;;;;5.78;3.92;;;614.80;1664.00;;;;;;4894675;29;20024;-78
2021/09/02 11:31:31;;;;;;;8.35;4.13;;;614.70;1740.80;;;;;;4887182;29;20048;-78
2021/09/02 11:33:58;;;;;;;5.38;3.95;;;614.60;1792.00;;;;;;4916062;29;20036;-80
2021/09/02 11:36:24;;;;;;;8.50;3.80;;;614.70;1766.40;;;;;;4919347;29;20035;-79
2021/09/02 11:39:05;;;;;;;7.63;4.93;;;614.70;1740.80;;;;;;4919121;29;20032;-78
2021/09/02 11:41:32;;;;;;;6.68;4.18;;;614.80;1766.40;;;;;;4926445;29;20031;-78
2021/09/02 11:43:57;;;;;;;8.82;4.60;;;614.60;1766.40;;;;;;4938015;29;20106;-80
2021/09/02 11:46:24;;;;;;;6.28;4.38;;;614.70;1766.40;;;;;;4921281;29;20530;-76
2021/09/02 11:48:55;;;;;;;6.03;3.97;;;614.60;1740.80;;;;;;4937395;29;20031;-76
2021/09/02 11:51:32;;;;;;;6.55;4.07;;;614.50;1766.40;;;;;;4920467;29;20036;-80
2021/09/02 11:54:07;;;;;;;8.15;4.47;;;614.50;1766.40;;;;;;4935971;29;20038;-78
2021/09/02 11:56:34;;;;;;;6.90;4.43;;;614.40;1843.20;;;;;;4937148;29;20501;-77
2021/09/02 11:59:01;;;;;;;7.07;3.75;;;614.50;1817.60;;;;;;4937821;29;20027;-75
2021/09/02 12:01:27;;;;;;;8.65;3.97;;;614.60;1766.40;;;;;;4920250;29;20397;-76
2021/09/02 12:03:54;;;;;;;5.95;3.90;;;614.90;1740.80;;;;;;4937802;29;20032;-81
2021/09/02 12:06:29;;;;;;;8.52;3.78;;;614.90;1740.80;;;;;;4937474;29;20040;-77
2021/09/02 12:08:58;;;;;;;5.75;3.67;;;614.80;1689.60;;;;;;4919647;29;20044;-77
2021/09/02 12:11:24;;;;;;;8.65;4.25;;;614.80;1689.60;;;;;;4937041;29;20091;-77
2021/09/02 12:13:54;;;;;;;5.50;3.40;;;614.90;1740.80;;;;;;4937199;29;20036;-83